sensor_id;sensor_type;location;lat;lon;timestamp;P1;durP1;ratioP1;P2;durP2;ratioP2
74535;SDS011;63013;51.104;-115.370;2022-09-16T00:01:14;27.90;;;17.90;;
74535;SDS011;63013;51.104;-115.370;2022-09-16T00:03:44;25.10;;;18.20;;
74535;SDS011;63013;51.104;-115.370;2022-09-16T00:06:20;27.40;;;18.20;;
74535;SDS011;63013;51.104;-115.370;2022-09-16T00:08:50;28.20;;;19.30;;
74535;SDS011;63013;51.104;-115.370;2022-09-16T00:11:22;28.10;;;18.90;;
74535;SDS011;63013;51.104;-115.370;2022-09-16T00:13:49;28.60;;;19.20;;
74535;SDS011;63013;51.104;-115.370;2022-09-16T00:16:19;26.40;;;19.10;;
74535;SDS011;63013;51.104;-115.370;2022-09-16T00:18:53;28.00;;;19.40;;
74535;SDS011;63013;51.104;-115.370;2022-09-16T00:21:23;28.80;;;20.10;;
74535;SDS011;63013;51.104;-115.370;2022-09-16T00:23:51;30.80;;;20.90;;
74535;SDS011;63013;51.104;-115.370;2022-09-16T00:26:18;31.30;;;22.60;;
74535;SDS011;63013;51.104;-115.370;2022-09-16T00:28:49;32.20;;;22.40;;
74535;SDS011;63013;51.104;-115.370;2022-09-16T00:31:16;32.40;;;22.30;;
74535;SDS011;63013;51.104;-115.370;2022-09-16T00:33:44;33.00;;;23.30;;
74535;SDS011;63013;51.104;-115.370;2022-09-16T00:36:17;31.50;;;22.50;;
74535;SDS011;63013;51.104;-115.370;2022-09-16T00:38:48;32.00;;;22.30;;
74535;SDS011;63013;51.104;-115.370;2022-09-16T00:41:30;30.80;;;21.50;;
74535;SDS011;63013;51.104;-115.370;2022-09-16T00:44:48;30.80;;;21.10;;
74535;SDS011;63013;51.104;-115.370;2022-09-16T00:47:12;31.40;;;20.70;;
74535;SDS011;63013;51.104;-115.370;2022-09-16T00:49:41;29.70;;;21.20;;
74535;SDS011;63013;51.104;-115.370;2022-09-16T00:52:10;33.10;;;21.80;;
74535;SDS011;63013;51.104;-115.370;2022-09-16T00:54:39;31.20;;;21.00;;
74535;SDS011;63013;51.104;-115.370;2022-09-16T00:57:08;29.50;;;20.60;;
74535;SDS011;63013;51.104;-115.370;2022-09-16T00:59:41;28.50;;;19.80;;
74535;SDS011;63013;51.104;-115.370;2022-09-16T01:02:16;28.50;;;19.90;;
74535;SDS011;63013;51.104;-115.370;2022-09-16T01:04:59;30.80;;;20.70;;
74535;SDS011;63013;51.104;-115.370;2022-09-16T01:07:47;29.30;;;19.90;;
74535;SDS011;63013;51.104;-115.370;2022-09-16T01:10:21;29.00;;;20.40;;
74535;SDS011;63013;51.104;-115.370;2022-09-16T01:12:54;28.70;;;19.50;;
74535;SDS011;63013;51.104;-115.370;2022-09-16T01:15:57;29.50;;;18.90;;
74535;SDS011;63013;51.104;-115.370;2022-09-16T01:21:47;27.90;;;18.90;;
74535;SDS011;63013;51.104;-115.370;2022-09-16T01:27:51;27.60;;;19.20;;
74535;SDS011;63013;51.104;-115.370;2022-09-16T01:30:52;25.40;;;16.90;;
74535;SDS011;63013;51.104;-115.370;2022-09-16T01:34:12;27.20;;;18.00;;
74535;SDS011;63013;51.104;-115.370;2022-09-16T01:37:14;25.90;;;17.50;;
74535;SDS011;63013;51.104;-115.370;2022-09-16T01:40:27;25.80;;;18.00;;
74535;SDS011;63013;51.104;-115.370;2022-09-16T01:43:39;25.40;;;17.60;;
74535;SDS011;63013;51.104;-115.370;2022-09-16T01:49:46;25.10;;;17.50;;
74535;SDS011;63013;51.104;-115.370;2022-09-16T01:55:48;23.40;;;16.60;;
74535;SDS011;63013;51.104;-115.370;2022-09-16T01:58:25;24.40;;;18.00;;
74535;SDS011;63013;51.104;-115.370;2022-09-16T02:01:59;24.20;;;17.60;;
74535;SDS011;63013;51.104;-115.370;2022-09-16T02:04:17;23.20;;;16.40;;
74535;SDS011;63013;51.104;-115.370;2022-09-16T02:06:58;25.40;;;16.10;;
74535;SDS011;63013;51.104;-115.370;2022-09-16T02:09:33;25.00;;;17.60;;
74535;SDS011;63013;51.104;-115.370;2022-09-16T02:12:10;23.40;;;15.80;;
74535;SDS011;63013;51.104;-115.370;2022-09-16T02:14:47;24.60;;;17.00;;
74535;SDS011;63013;51.104;-115.370;2022-09-16T02:17:21;23.60;;;16.20;;
74535;SDS011;63013;51.104;-115.370;2022-09-16T02:19:59;24.30;;;16.00;;
74535;SDS011;63013;51.104;-115.370;2022-09-16T02:22:38;24.50;;;16.10;;
74535;SDS011;63013;51.104;-115.370;2022-09-16T02:25:10;22.50;;;15.50;;
74535;SDS011;63013;51.104;-115.370;2022-09-16T02:27:40;21.70;;;15.60;;
74535;SDS011;63013;51.104;-115.370;2022-09-16T02:30:14;22.40;;;15.30;;
74535;SDS011;63013;51.104;-115.370;2022-09-16T02:32:47;24.00;;;16.10;;
74535;SDS011;63013;51.104;-115.370;2022-09-16T02:35:21;23.50;;;15.70;;
74535;SDS011;63013;51.104;-115.370;2022-09-16T02:38:10;22.90;;;16.00;;
74535;SDS011;63013;51.104;-115.370;2022-09-16T02:40:47;23.50;;;16.00;;
74535;SDS011;63013;51.104;-115.370;2022-09-16T02:43:18;21.90;;;15.50;;
74535;SDS011;63013;51.104;-115.370;2022-09-16T02:55:05;21.90;;;14.20;;
74535;SDS011;63013;51.104;-115.370;2022-09-16T02:57:41;20.00;;;14.80;;
74535;SDS011;63013;51.104;-115.370;2022-09-16T03:00:08;21.50;;;15.10;;
74535;SDS011;63013;51.104;-115.370;2022-09-16T03:02:36;22.40;;;15.60;;
74535;SDS011;63013;51.104;-115.370;2022-09-16T03:05:04;23.00;;;15.80;;
74535;SDS011;63013;51.104;-115.370;2022-09-16T03:07:32;20.60;;;14.80;;
74535;SDS011;63013;51.104;-115.370;2022-09-16T03:10:00;20.80;;;14.50;;
74535;SDS011;63013;51.104;-115.370;2022-09-16T03:12:40;20.10;;;14.20;;
74535;SDS011;63013;51.104;-115.370;2022-09-16T03:21:46;20.30;;;13.90;;
74535;SDS011;63013;51.104;-115.370;2022-09-16T03:25:12;19.30;;;13.70;;
74535;SDS011;63013;51.104;-115.370;2022-09-16T03:28:18;19.20;;;14.20;;
74535;SDS011;63013;51.104;-115.370;2022-09-16T03:30:59;18.20;;;13.40;;
74535;SDS011;63013;51.104;-115.370;2022-09-16T03:33:55;19.10;;;13.60;;
74535;SDS011;63013;51.104;-115.370;2022-09-16T03:36:36;21.40;;;14.70;;
74535;SDS011;63013;51.104;-115.370;2022-09-16T03:39:26;20.50;;;14.00;;
74535;SDS011;63013;51.104;-115.370;2022-09-16T03:41:54;18.00;;;12.90;;
74535;SDS011;63013;51.104;-115.370;2022-09-16T03:44:38;20.30;;;14.10;;
74535;SDS011;63013;51.104;-115.370;2022-09-16T03:47:08;20.10;;;13.80;;
74535;SDS011;63013;51.104;-115.370;2022-09-16T03:49:44;20.10;;;13.70;;
74535;SDS011;63013;51.104;-115.370;2022-09-16T03:52:12;18.40;;;13.10;;
74535;SDS011;63013;51.104;-115.370;2022-09-16T03:54:49;17.70;;;12.90;;
74535;SDS011;63013;51.104;-115.370;2022-09-16T03:57:16;19.00;;;13.50;;
74535;SDS011;63013;51.104;-115.370;2022-09-16T03:59:43;20.20;;;13.80;;
74535;SDS011;63013;51.104;-115.370;2022-09-16T04:02:10;19.90;;;13.20;;
74535;SDS011;63013;51.104;-115.370;2022-09-16T04:04:37;18.70;;;13.10;;
74535;SDS011;63013;51.104;-115.370;2022-09-16T04:07:08;20.50;;;14.30;;
74535;SDS011;63013;51.104;-115.370;2022-09-16T04:09:35;20.90;;;13.50;;
74535;SDS011;63013;51.104;-115.370;2022-09-16T04:12:03;19.10;;;13.00;;
74535;SDS011;63013;51.104;-115.370;2022-09-16T04:14:33;19.50;;;13.30;;
74535;SDS011;63013;51.104;-115.370;2022-09-16T04:17:20;18.40;;;13.10;;
74535;SDS011;63013;51.104;-115.370;2022-09-16T04:19:57;19.10;;;12.80;;
74535;SDS011;63013;51.104;-115.370;2022-09-16T04:22:28;16.70;;;12.20;;
74535;SDS011;63013;51.104;-115.370;2022-09-16T04:24:56;18.20;;;12.80;;
74535;SDS011;63013;51.104;-115.370;2022-09-16T04:27:23;18.00;;;13.10;;
74535;SDS011;63013;51.104;-115.370;2022-09-16T04:29:51;18.80;;;13.00;;
74535;SDS011;63013;51.104;-115.370;2022-09-16T04:32:18;19.00;;;13.00;;
74535;SDS011;63013;51.104;-115.370;2022-09-16T04:34:46;18.90;;;13.00;;
74535;SDS011;63013;51.104;-115.370;2022-09-16T04:37:13;18.20;;;13.20;;
74535;SDS011;63013;51.104;-115.370;2022-09-16T04:39:40;18.80;;;13.50;;
74535;SDS011;63013;51.104;-115.370;2022-09-16T04:42:07;18.40;;;12.70;;
74535;SDS011;63013;51.104;-115.370;2022-09-16T04:44:37;17.50;;;12.10;;
74535;SDS011;63013;51.104;-115.370;2022-09-16T04:47:04;17.20;;;11.90;;
74535;SDS011;63013;51.104;-115.370;2022-09-16T04:49:32;18.90;;;12.70;;
74535;SDS011;63013;51.104;-115.370;2022-09-16T04:51:59;17.90;;;12.50;;
74535;SDS011;63013;51.104;-115.370;2022-09-16T04:54:26;17.80;;;12.70;;
74535;SDS011;63013;51.104;-115.370;2022-09-16T04:56:53;17.10;;;12.60;;
74535;SDS011;63013;51.104;-115.370;2022-09-16T04:59:20;16.60;;;12.00;;
74535;SDS011;63013;51.104;-115.370;2022-09-16T05:01:47;18.30;;;12.70;;
74535;SDS011;63013;51.104;-115.370;2022-09-16T05:04:14;16.40;;;12.30;;
74535;SDS011;63013;51.104;-115.370;2022-09-16T05:06:42;16.20;;;11.80;;
74535;SDS011;63013;51.104;-115.370;2022-09-16T05:09:10;17.00;;;12.60;;
74535;SDS011;63013;51.104;-115.370;2022-09-16T05:11:39;17.70;;;12.40;;
74535;SDS011;63013;51.104;-115.370;2022-09-16T05:14:15;17.00;;;12.20;;
74535;SDS011;63013;51.104;-115.370;2022-09-16T05:16:44;17.30;;;12.20;;
74535;SDS011;63013;51.104;-115.370;2022-09-16T05:19:12;18.60;;;13.10;;
74535;SDS011;63013;51.104;-115.370;2022-09-16T05:21:40;17.10;;;12.40;;
74535;SDS011;63013;51.104;-115.370;2022-09-16T05:24:10;17.30;;;12.00;;
74535;SDS011;63013;51.104;-115.370;2022-09-16T05:26:40;16.70;;;11.80;;
74535;SDS011;63013;51.104;-115.370;2022-09-16T05:29:14;16.70;;;12.00;;
74535;SDS011;63013;51.104;-115.370;2022-09-16T05:31:43;16.60;;;11.90;;
74535;SDS011;63013;51.104;-115.370;2022-09-16T05:34:19;15.30;;;11.70;;
74535;SDS011;63013;51.104;-115.370;2022-09-16T05:36:49;18.70;;;12.10;;
74535;SDS011;63013;51.104;-115.370;2022-09-16T05:39:19;17.40;;;11.80;;
74535;SDS011;63013;51.104;-115.370;2022-09-16T05:41:46;16.60;;;12.20;;
74535;SDS011;63013;51.104;-115.370;2022-09-16T05:44:14;16.70;;;11.50;;
74535;SDS011;63013;51.104;-115.370;2022-09-16T05:46:41;15.50;;;12.00;;
74535;SDS011;63013;51.104;-115.370;2022-09-16T05:49:09;17.50;;;11.90;;
74535;SDS011;63013;51.104;-115.370;2022-09-16T05:51:38;15.50;;;11.60;;
74535;SDS011;63013;51.104;-115.370;2022-09-16T05:54:10;17.00;;;11.70;;
74535;SDS011;63013;51.104;-115.370;2022-09-16T05:56:37;17.30;;;11.60;;
74535;SDS011;63013;51.104;-115.370;2022-09-16T05:59:05;17.10;;;11.20;;
74535;SDS011;63013;51.104;-115.370;2022-09-16T06:01:33;16.80;;;11.10;;
74535;SDS011;63013;51.104;-115.370;2022-09-16T06:04:04;16.10;;;11.80;;
74535;SDS011;63013;51.104;-115.370;2022-09-16T06:06:39;16.10;;;11.10;;
74535;SDS011;63013;51.104;-115.370;2022-09-16T06:09:13;15.10;;;11.70;;
74535;SDS011;63013;51.104;-115.370;2022-09-16T06:11:47;16.10;;;11.60;;
74535;SDS011;63013;51.104;-115.370;2022-09-16T06:14:17;14.70;;;11.00;;
74535;SDS011;63013;51.104;-115.370;2022-09-16T06:16:45;14.90;;;10.80;;
74535;SDS011;63013;51.104;-115.370;2022-09-16T06:19:14;15.10;;;11.50;;
74535;SDS011;63013;51.104;-115.370;2022-09-16T06:21:44;16.10;;;11.80;;
74535;SDS011;63013;51.104;-115.370;2022-09-16T06:24:13;15.80;;;11.70;;
74535;SDS011;63013;51.104;-115.370;2022-09-16T06:26:43;16.20;;;11.50;;
74535;SDS011;63013;51.104;-115.370;2022-09-16T06:29:12;14.60;;;11.20;;
74535;SDS011;63013;51.104;-115.370;2022-09-16T06:31:40;16.20;;;11.60;;
74535;SDS011;63013;51.104;-115.370;2022-09-16T06:34:15;14.20;;;10.60;;
74535;SDS011;63013;51.104;-115.370;2022-09-16T06:36:46;16.50;;;11.50;;
74535;SDS011;63013;51.104;-115.370;2022-09-16T06:39:14;14.40;;;10.80;;
74535;SDS011;63013;51.104;-115.370;2022-09-16T06:41:42;15.90;;;11.10;;
74535;SDS011;63013;51.104;-115.370;2022-09-16T06:44:10;15.30;;;10.80;;
74535;SDS011;63013;51.104;-115.370;2022-09-16T06:46:37;16.00;;;11.20;;
74535;SDS011;63013;51.104;-115.370;2022-09-16T06:49:04;14.50;;;10.50;;
74535;SDS011;63013;51.104;-115.370;2022-09-16T06:51:32;15.30;;;10.90;;
74535;SDS011;63013;51.104;-115.370;2022-09-16T06:54:02;14.50;;;10.60;;
74535;SDS011;63013;51.104;-115.370;2022-09-16T06:56:31;16.40;;;11.60;;
74535;SDS011;63013;51.104;-115.370;2022-09-16T06:59:02;13.90;;;10.50;;
74535;SDS011;63013;51.104;-115.370;2022-09-16T07:01:30;14.80;;;10.40;;
74535;SDS011;63013;51.104;-115.370;2022-09-16T07:04:00;14.00;;;10.20;;
74535;SDS011;63013;51.104;-115.370;2022-09-16T07:06:31;15.20;;;11.40;;
74535;SDS011;63013;51.104;-115.370;2022-09-16T07:08:58;14.40;;;10.60;;
74535;SDS011;63013;51.104;-115.370;2022-09-16T07:11:26;15.70;;;11.00;;
74535;SDS011;63013;51.104;-115.370;2022-09-16T07:13:53;14.90;;;10.60;;
74535;SDS011;63013;51.104;-115.370;2022-09-16T07:16:23;15.00;;;10.70;;
74535;SDS011;63013;51.104;-115.370;2022-09-16T07:18:56;14.00;;;10.50;;
74535;SDS011;63013;51.104;-115.370;2022-09-16T07:21:26;14.30;;;10.80;;
74535;SDS011;63013;51.104;-115.370;2022-09-16T07:24:00;13.40;;;9.80;;
74535;SDS011;63013;51.104;-115.370;2022-09-16T07:26:30;13.00;;;10.30;;
74535;SDS011;63013;51.104;-115.370;2022-09-16T07:29:00;16.50;;;11.10;;
74535;SDS011;63013;51.104;-115.370;2022-09-16T07:31:33;14.20;;;10.10;;
74535;SDS011;63013;51.104;-115.370;2022-09-16T07:34:03;13.50;;;10.40;;
74535;SDS011;63013;51.104;-115.370;2022-09-16T07:36:35;14.60;;;10.30;;
74535;SDS011;63013;51.104;-115.370;2022-09-16T07:39:16;13.30;;;9.60;;
74535;SDS011;63013;51.104;-115.370;2022-09-16T07:41:45;13.10;;;9.80;;
74535;SDS011;63013;51.104;-115.370;2022-09-16T07:44:15;13.10;;;9.70;;
74535;SDS011;63013;51.104;-115.370;2022-09-16T07:46:46;14.00;;;10.30;;
74535;SDS011;63013;51.104;-115.370;2022-09-16T07:49:14;12.80;;;9.70;;
74535;SDS011;63013;51.104;-115.370;2022-09-16T07:51:42;13.50;;;9.80;;
74535;SDS011;63013;51.104;-115.370;2022-09-16T07:54:13;13.60;;;10.00;;
74535;SDS011;63013;51.104;-115.370;2022-09-16T07:56:42;14.00;;;10.10;;
74535;SDS011;63013;51.104;-115.370;2022-09-16T07:59:16;13.40;;;9.70;;
74535;SDS011;63013;51.104;-115.370;2022-09-16T08:01:44;13.60;;;10.00;;
74535;SDS011;63013;51.104;-115.370;2022-09-16T08:04:13;12.30;;;9.50;;
74535;SDS011;63013;51.104;-115.370;2022-09-16T08:06:40;13.30;;;10.00;;
74535;SDS011;63013;51.104;-115.370;2022-09-16T08:09:07;14.10;;;9.90;;
74535;SDS011;63013;51.104;-115.370;2022-09-16T08:11:34;14.00;;;9.80;;
74535;SDS011;63013;51.104;-115.370;2022-09-16T08:14:02;14.10;;;10.30;;
74535;SDS011;63013;51.104;-115.370;2022-09-16T08:16:29;14.10;;;10.20;;
74535;SDS011;63013;51.104;-115.370;2022-09-16T08:18:57;13.20;;;9.70;;
74535;SDS011;63013;51.104;-115.370;2022-09-16T08:21:27;13.80;;;9.90;;
74535;SDS011;63013;51.104;-115.370;2022-09-16T08:23:55;13.00;;;9.60;;
74535;SDS011;63013;51.104;-115.370;2022-09-16T08:26:23;13.80;;;9.60;;
74535;SDS011;63013;51.104;-115.370;2022-09-16T08:28:50;12.20;;;9.30;;
74535;SDS011;63013;51.104;-115.370;2022-09-16T08:31:19;12.60;;;9.10;;
74535;SDS011;63013;51.104;-115.370;2022-09-16T08:33:46;12.40;;;9.50;;
74535;SDS011;63013;51.104;-115.370;2022-09-16T08:36:19;13.70;;;10.10;;
74535;SDS011;63013;51.104;-115.370;2022-09-16T08:38:49;12.50;;;9.20;;
74535;SDS011;63013;51.104;-115.370;2022-09-16T08:50:48;13.50;;;9.90;;
74535;SDS011;63013;51.104;-115.370;2022-09-16T08:54:27;13.00;;;8.90;;
74535;SDS011;63013;51.104;-115.370;2022-09-16T08:56:48;12.50;;;8.90;;
74535;SDS011;63013;51.104;-115.370;2022-09-16T08:59:20;11.80;;;9.00;;
74535;SDS011;63013;51.104;-115.370;2022-09-16T09:04:47;13.00;;;9.50;;
74535;SDS011;63013;51.104;-115.370;2022-09-16T09:07:41;13.80;;;9.70;;
74535;SDS011;63013;51.104;-115.370;2022-09-16T09:10:39;12.10;;;9.10;;
74535;SDS011;63013;51.104;-115.370;2022-09-16T09:22:44;12.80;;;9.30;;
74535;SDS011;63013;51.104;-115.370;2022-09-16T09:25:30;13.10;;;8.90;;
74535;SDS011;63013;51.104;-115.370;2022-09-16T09:31:42;13.00;;;8.90;;
74535;SDS011;63013;51.104;-115.370;2022-09-16T09:37:40;11.80;;;8.40;;
74535;SDS011;63013;51.104;-115.370;2022-09-16T09:43:20;12.70;;;9.40;;
74535;SDS011;63013;51.104;-115.370;2022-09-16T09:46:31;12.80;;;8.90;;
74535;SDS011;63013;51.104;-115.370;2022-09-16T09:49:10;12.20;;;8.80;;
74535;SDS011;63013;51.104;-115.370;2022-09-16T09:51:48;12.50;;;9.20;;
74535;SDS011;63013;51.104;-115.370;2022-09-16T09:57:33;12.40;;;8.40;;
74535;SDS011;63013;51.104;-115.370;2022-09-16T10:00:18;12.90;;;9.00;;
74535;SDS011;63013;51.104;-115.370;2022-09-16T10:02:48;12.60;;;8.80;;
74535;SDS011;63013;51.104;-115.370;2022-09-16T10:05:22;12.20;;;8.90;;
74535;SDS011;63013;51.104;-115.370;2022-09-16T10:07:54;12.20;;;9.00;;
74535;SDS011;63013;51.104;-115.370;2022-09-16T10:10:26;12.50;;;8.80;;
74535;SDS011;63013;51.104;-115.370;2022-09-16T10:13:10;12.20;;;8.70;;
74535;SDS011;63013;51.104;-115.370;2022-09-16T10:15:39;12.10;;;8.10;;
74535;SDS011;63013;51.104;-115.370;2022-09-16T10:18:22;11.10;;;8.50;;
74535;SDS011;63013;51.104;-115.370;2022-09-16T10:21:06;11.60;;;8.60;;
74535;SDS011;63013;51.104;-115.370;2022-09-16T10:23:56;10.50;;;8.30;;
74535;SDS011;63013;51.104;-115.370;2022-09-16T10:26:25;10.90;;;8.00;;
74535;SDS011;63013;51.104;-115.370;2022-09-16T10:29:02;12.20;;;9.00;;
74535;SDS011;63013;51.104;-115.370;2022-09-16T10:31:40;11.00;;;8.60;;
74535;SDS011;63013;51.104;-115.370;2022-09-16T10:34:30;11.80;;;8.20;;
74535;SDS011;63013;51.104;-115.370;2022-09-16T10:37:01;11.20;;;8.50;;
74535;SDS011;63013;51.104;-115.370;2022-09-16T10:39:36;11.90;;;8.20;;
74535;SDS011;63013;51.104;-115.370;2022-09-16T10:42:28;12.30;;;8.70;;
74535;SDS011;63013;51.104;-115.370;2022-09-16T10:45:25;12.10;;;8.40;;
74535;SDS011;63013;51.104;-115.370;2022-09-16T10:48:00;12.00;;;8.60;;
74535;SDS011;63013;51.104;-115.370;2022-09-16T10:50:32;10.70;;;7.90;;
74535;SDS011;63013;51.104;-115.370;2022-09-16T10:53:00;11.80;;;8.10;;
74535;SDS011;63013;51.104;-115.370;2022-09-16T10:55:29;11.50;;;8.30;;
74535;SDS011;63013;51.104;-115.370;2022-09-16T10:58:18;11.80;;;8.30;;
74535;SDS011;63013;51.104;-115.370;2022-09-16T11:00:55;11.60;;;8.40;;
74535;SDS011;63013;51.104;-115.370;2022-09-16T11:07:11;10.70;;;8.20;;
74535;SDS011;63013;51.104;-115.370;2022-09-16T11:19:10;10.90;;;7.90;;
74535;SDS011;63013;51.104;-115.370;2022-09-16T11:22:08;11.30;;;8.10;;
74535;SDS011;63013;51.104;-115.370;2022-09-16T11:31:58;11.30;;;8.20;;
74535;SDS011;63013;51.104;-115.370;2022-09-16T11:41:48;10.60;;;7.80;;
74535;SDS011;63013;51.104;-115.370;2022-09-16T11:56:48;10.80;;;7.90;;
74535;SDS011;63013;51.104;-115.370;2022-09-16T11:59:26;10.60;;;7.80;;
74535;SDS011;63013;51.104;-115.370;2022-09-16T12:02:39;10.60;;;7.50;;
74535;SDS011;63013;51.104;-115.370;2022-09-16T12:08:35;10.20;;;7.70;;
74535;SDS011;63013;51.104;-115.370;2022-09-16T12:11:42;10.10;;;7.70;;
74535;SDS011;63013;51.104;-115.370;2022-09-16T12:14:37;10.50;;;7.80;;
74535;SDS011;63013;51.104;-115.370;2022-09-16T12:19:56;9.60;;;7.10;;
74535;SDS011;63013;51.104;-115.370;2022-09-16T12:23:33;10.00;;;7.20;;
74535;SDS011;63013;51.104;-115.370;2022-09-16T12:32:49;10.40;;;8.00;;
74535;SDS011;63013;51.104;-115.370;2022-09-16T12:35:03;8.40;;;6.70;;
74535;SDS011;63013;51.104;-115.370;2022-09-16T12:37:50;9.60;;;7.60;;
74535;SDS011;63013;51.104;-115.370;2022-09-16T12:40:39;10.00;;;7.10;;
74535;SDS011;63013;51.104;-115.370;2022-09-16T12:46:28;11.00;;;7.50;;
74535;SDS011;63013;51.104;-115.370;2022-09-16T12:49:14;10.00;;;7.20;;
74535;SDS011;63013;51.104;-115.370;2022-09-16T12:52:02;10.40;;;7.50;;
74535;SDS011;63013;51.104;-115.370;2022-09-16T12:57:55;10.30;;;7.10;;
74535;SDS011;63013;51.104;-115.370;2022-09-16T13:03:15;10.20;;;7.00;;
74535;SDS011;63013;51.104;-115.370;2022-09-16T13:05:48;10.10;;;7.00;;
74535;SDS011;63013;51.104;-115.370;2022-09-16T13:08:36;9.90;;;6.70;;
74535;SDS011;63013;51.104;-115.370;2022-09-16T13:11:06;9.70;;;7.10;;
74535;SDS011;63013;51.104;-115.370;2022-09-16T13:13:47;9.60;;;6.60;;
74535;SDS011;63013;51.104;-115.370;2022-09-16T13:16:31;11.00;;;7.30;;
74535;SDS011;63013;51.104;-115.370;2022-09-16T13:22:22;10.60;;;6.80;;
74535;SDS011;63013;51.104;-115.370;2022-09-16T13:28:02;9.50;;;6.90;;
74535;SDS011;63013;51.104;-115.370;2022-09-16T13:30:50;9.50;;;6.40;;
74535;SDS011;63013;51.104;-115.370;2022-09-16T13:33:20;10.00;;;7.10;;
74535;SDS011;63013;51.104;-115.370;2022-09-16T13:36:11;9.60;;;7.10;;
74535;SDS011;63013;51.104;-115.370;2022-09-16T13:41:38;9.40;;;6.70;;
74535;SDS011;63013;51.104;-115.370;2022-09-16T13:50:06;9.30;;;6.80;;
74535;SDS011;63013;51.104;-115.370;2022-09-16T13:52:39;9.00;;;6.60;;
74535;SDS011;63013;51.104;-115.370;2022-09-16T13:55:27;9.70;;;6.70;;
74535;SDS011;63013;51.104;-115.370;2022-09-16T13:58:12;9.70;;;6.50;;
74535;SDS011;63013;51.104;-115.370;2022-09-16T14:00:56;8.60;;;6.70;;
74535;SDS011;63013;51.104;-115.370;2022-09-16T14:07:25;8.90;;;6.70;;
74535;SDS011;63013;51.104;-115.370;2022-09-16T14:13:21;8.80;;;6.10;;
74535;SDS011;63013;51.104;-115.370;2022-09-16T14:18:27;9.10;;;6.20;;
74535;SDS011;63013;51.104;-115.370;2022-09-16T14:21:33;8.20;;;5.80;;
74535;SDS011;63013;51.104;-115.370;2022-09-16T14:23:54;8.60;;;6.20;;
74535;SDS011;63013;51.104;-115.370;2022-09-16T14:26:32;8.60;;;6.30;;
74535;SDS011;63013;51.104;-115.370;2022-09-16T14:29:03;9.00;;;6.20;;
74535;SDS011;63013;51.104;-115.370;2022-09-16T14:31:32;8.80;;;6.30;;
74535;SDS011;63013;51.104;-115.370;2022-09-16T14:34:04;10.00;;;6.70;;
74535;SDS011;63013;51.104;-115.370;2022-09-16T14:36:36;9.20;;;6.40;;
74535;SDS011;63013;51.104;-115.370;2022-09-16T14:39:15;8.50;;;6.20;;
74535;SDS011;63013;51.104;-115.370;2022-09-16T14:41:59;8.10;;;6.20;;
74535;SDS011;63013;51.104;-115.370;2022-09-16T14:44:39;9.20;;;6.40;;
74535;SDS011;63013;51.104;-115.370;2022-09-16T14:49:55;7.80;;;5.80;;
74535;SDS011;63013;51.104;-115.370;2022-09-16T14:52:32;9.20;;;5.90;;
74535;SDS011;63013;51.104;-115.370;2022-09-16T14:55:00;7.90;;;6.00;;
74535;SDS011;63013;51.104;-115.370;2022-09-16T14:57:29;8.50;;;6.20;;
74535;SDS011;63013;51.104;-115.370;2022-09-16T15:00:01;9.20;;;6.20;;
74535;SDS011;63013;51.104;-115.370;2022-09-16T15:02:47;7.80;;;6.10;;
74535;SDS011;63013;51.104;-115.370;2022-09-16T15:05:32;8.80;;;6.20;;
74535;SDS011;63013;51.104;-115.370;2022-09-16T15:08:26;8.30;;;6.10;;
74535;SDS011;63013;51.104;-115.370;2022-09-16T15:11:00;8.40;;;5.70;;
74535;SDS011;63013;51.104;-115.370;2022-09-16T15:13:37;8.90;;;6.00;;
74535;SDS011;63013;51.104;-115.370;2022-09-16T15:16:10;9.00;;;5.90;;
74535;SDS011;63013;51.104;-115.370;2022-09-16T15:19:03;7.60;;;5.30;;
74535;SDS011;63013;51.104;-115.370;2022-09-16T15:21:37;9.70;;;5.80;;
74535;SDS011;63013;51.104;-115.370;2022-09-16T15:24:17;7.90;;;5.70;;
74535;SDS011;63013;51.104;-115.370;2022-09-16T15:26:48;8.30;;;5.80;;
74535;SDS011;63013;51.104;-115.370;2022-09-16T15:31:46;10.00;;;5.60;;
74535;SDS011;63013;51.104;-115.370;2022-09-16T15:36:53;8.80;;;6.20;;
74535;SDS011;63013;51.104;-115.370;2022-09-16T15:39:37;8.40;;;5.80;;
74535;SDS011;63013;51.104;-115.370;2022-09-16T15:42:30;8.50;;;5.90;;
74535;SDS011;63013;51.104;-115.370;2022-09-16T15:44:59;9.00;;;5.90;;
74535;SDS011;63013;51.104;-115.370;2022-09-16T15:47:31;9.10;;;6.00;;
74535;SDS011;63013;51.104;-115.370;2022-09-16T15:50:12;8.20;;;5.90;;
74535;SDS011;63013;51.104;-115.370;2022-09-16T15:53:02;7.90;;;6.00;;
74535;SDS011;63013;51.104;-115.370;2022-09-16T15:58:44;8.00;;;5.60;;
74535;SDS011;63013;51.104;-115.370;2022-09-16T16:01:45;7.50;;;5.50;;
74535;SDS011;63013;51.104;-115.370;2022-09-16T16:04:35;7.90;;;5.60;;
74535;SDS011;63013;51.104;-115.370;2022-09-16T16:07:05;8.30;;;5.70;;
74535;SDS011;63013;51.104;-115.370;2022-09-16T16:09:37;7.90;;;6.00;;
74535;SDS011;63013;51.104;-115.370;2022-09-16T16:12:13;8.50;;;6.20;;
74535;SDS011;63013;51.104;-115.370;2022-09-16T16:15:03;8.30;;;5.80;;
74535;SDS011;63013;51.104;-115.370;2022-09-16T16:17:31;8.10;;;5.70;;
74535;SDS011;63013;51.104;-115.370;2022-09-16T16:19:58;8.10;;;5.70;;
74535;SDS011;63013;51.104;-115.370;2022-09-16T16:22:25;7.90;;;5.50;;
74535;SDS011;63013;51.104;-115.370;2022-09-16T16:24:53;8.00;;;5.90;;
74535;SDS011;63013;51.104;-115.370;2022-09-16T16:27:20;8.50;;;6.00;;
74535;SDS011;63013;51.104;-115.370;2022-09-16T16:29:48;7.60;;;6.00;;
74535;SDS011;63013;51.104;-115.370;2022-09-16T16:32:15;7.80;;;5.70;;
74535;SDS011;63013;51.104;-115.370;2022-09-16T16:34:44;7.10;;;5.50;;
74535;SDS011;63013;51.104;-115.370;2022-09-16T16:37:15;7.40;;;5.50;;
74535;SDS011;63013;51.104;-115.370;2022-09-16T16:39:44;8.10;;;5.80;;
74535;SDS011;63013;51.104;-115.370;2022-09-16T16:42:12;8.00;;;5.80;;
74535;SDS011;63013;51.104;-115.370;2022-09-16T16:44:40;8.00;;;5.70;;
74535;SDS011;63013;51.104;-115.370;2022-09-16T16:47:08;6.70;;;4.80;;
74535;SDS011;63013;51.104;-115.370;2022-09-16T16:49:36;7.50;;;5.40;;
74535;SDS011;63013;51.104;-115.370;2022-09-16T16:52:04;8.20;;;5.70;;
74535;SDS011;63013;51.104;-115.370;2022-09-16T16:54:32;7.70;;;5.50;;
74535;SDS011;63013;51.104;-115.370;2022-09-16T16:57:00;7.60;;;5.80;;
74535;SDS011;63013;51.104;-115.370;2022-09-16T16:59:30;7.80;;;5.60;;
74535;SDS011;63013;51.104;-115.370;2022-09-16T17:01:57;7.30;;;5.30;;
74535;SDS011;63013;51.104;-115.370;2022-09-16T17:04:24;7.30;;;5.40;;
74535;SDS011;63013;51.104;-115.370;2022-09-16T17:06:51;7.40;;;5.40;;
74535;SDS011;63013;51.104;-115.370;2022-09-16T17:09:19;7.50;;;5.20;;
74535;SDS011;63013;51.104;-115.370;2022-09-16T17:11:54;7.90;;;5.20;;
74535;SDS011;63013;51.104;-115.370;2022-09-16T17:14:27;7.00;;;5.20;;
74535;SDS011;63013;51.104;-115.370;2022-09-16T17:16:56;7.80;;;4.90;;
74535;SDS011;63013;51.104;-115.370;2022-09-16T17:19:24;7.80;;;4.90;;
74535;SDS011;63013;51.104;-115.370;2022-09-16T17:21:52;7.30;;;5.20;;